sensor_id;sensor_type;location;lat;lon;timestamp;pressure;altitude;pressure_sealevel;temperature;humidity
38612;BME280;24368;52.156;20.788;2022-11-15T00:04:31;100881.80;;;5.13;100.00
38612;BME280;24368;52.156;20.788;2022-11-15T00:09:32;100878.36;;;5.15;100.00
38612;BME280;24368;52.156;20.788;2022-11-15T00:14:34;100873.50;;;5.20;100.00
38612;BME280;24368;52.156;20.788;2022-11-15T00:19:36;100866.95;;;5.16;100.00
38612;BME280;24368;52.156;20.788;2022-11-15T00:24:37;100861.65;;;5.06;100.00
38612;BME280;24368;52.156;20.788;2022-11-15T00:29:39;100848.90;;;5.11;100.00
38612;BME280;24368;52.156;20.788;2022-11-15T00:34:47;100844.13;;;5.20;100.00
38612;BME280;24368;52.156;20.788;2022-11-15T00:39:49;100837.08;;;5.28;100.00
38612;BME280;24368;52.156;20.788;2022-11-15T00:44:51;100836.14;;;5.41;100.00
38612;BME280;24368;52.156;20.788;2022-11-15T00:49:52;100823.86;;;5.30;100.00
38612;BME280;24368;52.156;20.788;2022-11-15T00:54:54;100819.58;;;5.11;100.00
38612;BME280;24368;52.156;20.788;2022-11-15T00:59:56;100804.61;;;5.08;100.00
38612;BME280;24368;52.156;20.788;2022-11-15T01:04:58;100796.84;;;5.14;100.00
38612;BME280;24368;52.156;20.788;2022-11-15T01:09:59;100782.39;;;5.31;100.00
38612;BME280;24368;52.156;20.788;2022-11-15T01:15:02;100781.41;;;5.27;100.00
38612;BME280;24368;52.156;20.788;2022-11-15T01:20:05;100792.85;;;5.16;100.00
38612;BME280;24368;52.156;20.788;2022-11-15T01:25:07;100794.46;;;5.03;100.00
38612;BME280;24368;52.156;20.788;2022-11-15T01:30:09;100781.42;;;4.98;100.00
38612;BME280;24368;52.156;20.788;2022-11-15T01:35:11;100777.22;;;5.00;100.00
38612;BME280;24368;52.156;20.788;2022-11-15T01:40:12;100778.65;;;5.02;100.00
38612;BME280;24368;52.156;20.788;2022-11-15T01:45:15;100769.94;;;5.02;100.00
38612;BME280;24368;52.156;20.788;2022-11-15T01:50:20;100762.41;;;4.97;100.00
38612;BME280;24368;52.156;20.788;2022-11-15T01:55:26;100757.05;;;4.94;100.00
38612;BME280;24368;52.156;20.788;2022-11-15T02:00:29;100755.36;;;4.93;100.00
38612;BME280;24368;52.156;20.788;2022-11-15T02:05:31;100750.33;;;4.83;100.00
38612;BME280;24368;52.156;20.788;2022-11-15T02:10:34;100742.55;;;4.77;100.00
38612;BME280;24368;52.156;20.788;2022-11-15T02:21:14;100724.81;;;4.76;100.00
38612;BME280;24368;52.156;20.788;2022-11-15T02:42:21;100706.40;;;4.82;100.00
38612;BME280;24368;52.156;20.788;2022-11-15T02:47:46;100697.75;;;4.83;100.00
38612;BME280;24368;52.156;20.788;2022-11-15T02:52:51;100700.68;;;4.72;100.00
38612;BME280;24368;52.156;20.788;2022-11-15T03:03:33;100685.22;;;4.63;100.00
38612;BME280;24368;52.156;20.788;2022-11-15T03:09:02;100676.42;;;4.64;100.00
38612;BME280;24368;52.156;20.788;2022-11-15T03:19:48;100659.69;;;4.66;100.00
38612;BME280;24368;52.156;20.788;2022-11-15T03:24:54;100659.15;;;4.64;100.00
38612;BME280;24368;52.156;20.788;2022-11-15T03:30:01;100659.87;;;4.63;100.00
38612;BME280;24368;52.156;20.788;2022-11-15T03:35:07;100651.37;;;4.60;100.00
38612;BME280;24368;52.156;20.788;2022-11-15T03:40:10;100652.48;;;4.69;100.00
38612;BME280;24368;52.156;20.788;2022-11-15T03:45:32;100634.06;;;4.73;100.00
38612;BME280;24368;52.156;20.788;2022-11-15T03:50:37;100627.02;;;4.67;100.00
38612;BME280;24368;52.156;20.788;2022-11-15T03:55:39;100627.83;;;4.67;100.00
38612;BME280;24368;52.156;20.788;2022-11-15T04:00:41;100622.02;;;4.63;100.00
38612;BME280;24368;52.156;20.788;2022-11-15T04:05:43;100607.69;;;4.54;100.00
38612;BME280;24368;52.156;20.788;2022-11-15T04:10:45;100604.27;;;4.57;100.00
38612;BME280;24368;52.156;20.788;2022-11-15T04:15:46;100603.97;;;4.66;100.00
38612;BME280;24368;52.156;20.788;2022-11-15T04:20:48;100599.61;;;4.69;100.00
38612;BME280;24368;52.156;20.788;2022-11-15T04:26:11;100601.14;;;4.58;100.00
38612;BME280;24368;52.156;20.788;2022-11-15T04:31:14;100602.75;;;4.35;100.00
38612;BME280;24368;52.156;20.788;2022-11-15T04:36:15;100603.10;;;4.32;100.00
38612;BME280;24368;52.156;20.788;2022-11-15T04:41:36;100595.95;;;4.35;100.00
38612;BME280;24368;52.156;20.788;2022-11-15T04:46:38;100590.20;;;4.37;100.00
38612;BME280;24368;52.156;20.788;2022-11-15T04:51:39;100589.37;;;4.41;100.00
38612;BME280;24368;52.156;20.788;2022-11-15T04:56:41;100582.98;;;4.43;100.00
38612;BME280;24368;52.156;20.788;2022-11-15T05:01:43;100583.80;;;4.41;100.00
38612;BME280;24368;52.156;20.788;2022-11-15T05:06:50;100583.66;;;4.38;100.00
38612;BME280;24368;52.156;20.788;2022-11-15T05:11:53;100585.20;;;4.34;100.00
38612;BME280;24368;52.156;20.788;2022-11-15T05:16:54;100577.09;;;4.30;100.00
38612;BME280;24368;52.156;20.788;2022-11-15T05:21:56;100579.38;;;4.32;100.00
38612;BME280;24368;52.156;20.788;2022-11-15T05:26:57;100575.07;;;4.34;100.00
38612;BME280;24368;52.156;20.788;2022-11-15T05:31:59;100580.98;;;4.24;100.00
38612;BME280;24368;52.156;20.788;2022-11-15T05:37:03;100570.17;;;4.14;100.00
38612;BME280;24368;52.156;20.788;2022-11-15T05:42:13;100559.66;;;4.12;100.00
38612;BME280;24368;52.156;20.788;2022-11-15T05:47:23;100565.98;;;4.17;100.00
38612;BME280;24368;52.156;20.788;2022-11-15T05:52:29;100560.40;;;4.17;100.00
38612;BME280;24368;52.156;20.788;2022-11-15T05:57:33;100560.48;;;4.15;100.00
38612;BME280;24368;52.156;20.788;2022-11-15T06:02:35;100561.48;;;4.19;100.00
38612;BME280;24368;52.156;20.788;2022-11-15T06:07:37;100564.17;;;4.13;100.00
38612;BME280;24368;52.156;20.788;2022-11-15T06:12:39;100568.59;;;4.12;100.00
38612;BME280;24368;52.156;20.788;2022-11-15T06:17:40;100564.33;;;4.08;100.00
38612;BME280;24368;52.156;20.788;2022-11-15T06:22:42;100564.65;;;4.08;100.00
38612;BME280;24368;52.156;20.788;2022-11-15T06:27:44;100566.70;;;4.14;100.00
38612;BME280;24368;52.156;20.788;2022-11-15T06:32:58;100573.79;;;4.12;100.00
38612;BME280;24368;52.156;20.788;2022-11-15T06:38:08;100575.77;;;4.09;100.00
38612;BME280;24368;52.156;20.788;2022-11-15T06:43:10;100580.39;;;4.10;100.00
38612;BME280;24368;52.156;20.788;2022-11-15T06:48:12;100576.98;;;4.04;100.00
38612;BME280;24368;52.156;20.788;2022-11-15T06:53:13;100574.13;;;3.92;100.00
38612;BME280;24368;52.156;20.788;2022-11-15T06:58:15;100576.11;;;3.99;100.00
38612;BME280;24368;52.156;20.788;2022-11-15T07:03:17;100572.14;;;4.11;100.00
38612;BME280;24368;52.156;20.788;2022-11-15T07:08:19;100576.21;;;4.20;100.00
38612;BME280;24368;52.156;20.788;2022-11-15T07:13:24;100578.47;;;4.21;100.00
38612;BME280;24368;52.156;20.788;2022-11-15T07:18:27;100573.98;;;4.12;100.00
38612;BME280;24368;52.156;20.788;2022-11-15T07:23:38;100577.02;;;4.16;100.00
38612;BME280;24368;52.156;20.788;2022-11-15T07:28:40;100580.10;;;4.17;100.00
38612;BME280;24368;52.156;20.788;2022-11-15T07:33:42;100576.77;;;4.27;100.00
38612;BME280;24368;52.156;20.788;2022-11-15T07:38:43;100576.25;;;4.32;100.00
38612;BME280;24368;52.156;20.788;2022-11-15T07:43:45;100570.21;;;4.36;100.00
38612;BME280;24368;52.156;20.788;2022-11-15T07:48:47;100565.80;;;4.34;100.00
38612;BME280;24368;52.156;20.788;2022-11-15T07:53:49;100557.56;;;4.37;100.00
38612;BME280;24368;52.156;20.788;2022-11-15T07:58:50;100547.36;;;4.36;100.00
38612;BME280;24368;52.156;20.788;2022-11-15T08:03:52;100542.61;;;4.37;100.00
38612;BME280;24368;52.156;20.788;2022-11-15T08:08:54;100534.42;;;4.41;100.00
38612;BME280;24368;52.156;20.788;2022-11-15T08:13:57;100535.02;;;4.40;100.00
38612;BME280;24368;52.156;20.788;2022-11-15T08:18:58;100534.08;;;4.51;100.00
38612;BME280;24368;52.156;20.788;2022-11-15T08:24:00;100526.42;;;4.53;100.00
38612;BME280;24368;52.156;20.788;2022-11-15T08:29:02;100512.15;;;4.45;100.00
38612;BME280;24368;52.156;20.788;2022-11-15T08:34:04;100510.02;;;4.60;100.00
38612;BME280;24368;52.156;20.788;2022-11-15T08:39:10;100511.66;;;4.67;100.00
38612;BME280;24368;52.156;20.788;2022-11-15T08:44:12;100515.83;;;4.72;100.00
38612;BME280;24368;52.156;20.788;2022-11-15T08:49:13;100515.98;;;4.77;100.00
38612;BME280;24368;52.156;20.788;2022-11-15T08:54:15;100508.84;;;4.72;100.00
38612;BME280;24368;52.156;20.788;2022-11-15T08:59:17;100508.30;;;4.84;100.00
38612;BME280;24368;52.156;20.788;2022-11-15T09:04:18;100503.14;;;4.80;100.00
38612;BME280;24368;52.156;20.788;2022-11-15T09:09:20;100494.06;;;4.83;100.00
38612;BME280;24368;52.156;20.788;2022-11-15T09:14:22;100494.56;;;4.85;100.00
38612;BME280;24368;52.156;20.788;2022-11-15T09:19:26;100487.79;;;4.80;100.00
38612;BME280;24368;52.156;20.788;2022-11-15T09:24:28;100484.20;;;4.86;100.00
38612;BME280;24368;52.156;20.788;2022-11-15T09:29:29;100480.23;;;4.99;100.00
38612;BME280;24368;52.156;20.788;2022-11-15T09:34:31;100476.76;;;4.99;100.00
38612;BME280;24368;52.156;20.788;2022-11-15T09:39:33;100473.88;;;4.98;100.00
38612;BME280;24368;52.156;20.788;2022-11-15T09:45:05;100473.73;;;5.05;100.00
38612;BME280;24368;52.156;20.788;2022-11-15T09:50:14;100467.42;;;5.09;100.00
38612;BME280;24368;52.156;20.788;2022-11-15T09:55:16;100455.08;;;5.16;100.00
38612;BME280;24368;52.156;20.788;2022-11-15T10:00:44;100446.55;;;5.25;100.00
38612;BME280;24368;52.156;20.788;2022-11-15T10:05:54;100435.36;;;5.20;100.00
38612;BME280;24368;52.156;20.788;2022-11-15T10:11:02;100423.69;;;5.15;100.00
38612;BME280;24368;52.156;20.788;2022-11-15T10:27:17;100415.41;;;5.37;100.00
38612;BME280;24368;52.156;20.788;2022-11-15T10:32:22;100406.50;;;5.50;100.00
38612;BME280;24368;52.156;20.788;2022-11-15T10:37:31;100401.45;;;5.52;100.00
38612;BME280;24368;52.156;20.788;2022-11-15T10:42:33;100404.17;;;5.53;100.00
38612;BME280;24368;52.156;20.788;2022-11-15T10:47:35;100398.19;;;5.62;100.00
38612;BME280;24368;52.156;20.788;2022-11-15T10:52:45;100396.44;;;5.69;100.00
38612;BME280;24368;52.156;20.788;2022-11-15T10:57:56;100387.36;;;5.74;100.00
38612;BME280;24368;52.156;20.788;2022-11-15T11:03:03;100383.34;;;5.69;100.00
38612;BME280;24368;52.156;20.788;2022-11-15T11:13:21;100379.03;;;5.83;100.00
38612;BME280;24368;52.156;20.788;2022-11-15T11:18:48;100379.94;;;5.72;100.00
38612;BME280;24368;52.156;20.788;2022-11-15T11:23:59;100382.77;;;5.70;100.00
38612;BME280;24368;52.156;20.788;2022-11-15T11:34:58;100362.40;;;5.88;100.00
38612;BME280;24368;52.156;20.788;2022-11-15T11:40:30;100346.02;;;5.94;100.00
38612;BME280;24368;52.156;20.788;2022-11-15T11:50:38;100335.16;;;6.05;100.00
38612;BME280;24368;52.156;20.788;2022-11-15T11:55:52;100329.27;;;6.02;100.00
38612;BME280;24368;52.156;20.788;2022-11-15T12:01:02;100324.73;;;6.00;100.00
38612;BME280;24368;52.156;20.788;2022-11-15T12:06:23;100317.86;;;6.05;100.00
38612;BME280;24368;52.156;20.788;2022-11-15T12:16:51;100313.84;;;6.04;100.00
38612;BME280;24368;52.156;20.788;2022-11-15T12:32:33;100310.05;;;5.98;100.00
38612;BME280;24368;52.156;20.788;2022-11-15T12:43:04;100293.62;;;6.08;100.00
38612;BME280;24368;52.156;20.788;2022-11-15T12:58:42;100282.46;;;5.99;100.00
38612;BME280;24368;52.156;20.788;2022-11-15T13:19:38;100262.57;;;6.09;100.00
38612;BME280;24368;52.156;20.788;2022-11-15T13:24:39;100256.57;;;6.04;100.00
38612;BME280;24368;52.156;20.788;2022-11-15T13:29:43;100253.23;;;5.97;100.00
38612;BME280;24368;52.156;20.788;2022-11-15T13:34:49;100249.80;;;5.95;100.00
38612;BME280;24368;52.156;20.788;2022-11-15T13:39:54;100249.50;;;5.96;100.00
38612;BME280;24368;52.156;20.788;2022-11-15T13:45:00;100246.58;;;5.91;100.00
38612;BME280;24368;52.156;20.788;2022-11-15T13:50:03;100245.88;;;5.93;100.00
38612;BME280;24368;52.156;20.788;2022-11-15T13:55:16;100244.70;;;5.97;100.00
38612;BME280;24368;52.156;20.788;2022-11-15T14:00:30;100243.33;;;6.03;100.00
38612;BME280;24368;52.156;20.788;2022-11-15T14:05:33;100241.73;;;5.92;100.00
38612;BME280;24368;52.156;20.788;2022-11-15T14:10:37;100242.47;;;5.83;100.00
38612;BME280;24368;52.156;20.788;2022-11-15T14:15:39;100240.48;;;5.76;100.00
38612;BME280;24368;52.156;20.788;2022-11-15T14:20:41;100229.83;;;5.78;100.00
38612;BME280;24368;52.156;20.788;2022-11-15T14:25:56;100220.66;;;5.83;100.00
38612;BME280;24368;52.156;20.788;2022-11-15T14:30:59;100220.24;;;5.84;100.00
38612;BME280;24368;52.156;20.788;2022-11-15T14:36:10;100215.52;;;5.88;100.00
38612;BME280;24368;52.156;20.788;2022-11-15T14:41:24;100220.17;;;5.94;100.00
38612;BME280;24368;52.156;20.788;2022-11-15T14:46:26;100231.69;;;6.00;100.00
38612;BME280;24368;52.156;20.788;2022-11-15T14:51:28;100227.96;;;6.01;100.00
38612;BME280;24368;52.156;20.788;2022-11-15T14:56:30;100223.61;;;5.96;100.00
38612;BME280;24368;52.156;20.788;2022-11-15T15:01:31;100222.92;;;5.94;100.00
38612;BME280;24368;52.156;20.788;2022-11-15T15:06:33;100218.35;;;5.92;100.00
38612;BME280;24368;52.156;20.788;2022-11-15T15:11:35;100216.01;;;5.93;100.00
38612;BME280;24368;52.156;20.788;2022-11-15T15:16:36;100215.36;;;5.94;100.00
38612;BME280;24368;52.156;20.788;2022-11-15T15:21:39;100215.23;;;5.96;100.00
38612;BME280;24368;52.156;20.788;2022-11-15T15:26:41;100214.35;;;5.94;100.00
38612;BME280;24368;52.156;20.788;2022-11-15T15:31:44;100205.77;;;5.81;100.00
38612;BME280;24368;52.156;20.788;2022-11-15T15:36:46;100203.73;;;5.61;100.00
38612;BME280;24368;52.156;20.788;2022-11-15T15:41:48;100200.98;;;5.63;100.00
38612;BME280;24368;52.156;20.788;2022-11-15T15:46:50;100202.20;;;5.70;100.00
38612;BME280;24368;52.156;20.788;2022-11-15T15:51:55;100201.20;;;5.73;100.00
38612;BME280;24368;52.156;20.788;2022-11-15T15:56:57;100196.36;;;5.83;100.00
38612;BME280;24368;52.156;20.788;2022-11-15T16:01:59;100190.65;;;5.88;100.00
38612;BME280;24368;52.156;20.788;2022-11-15T16:07:02;100187.87;;;5.84;100.00
38612;BME280;24368;52.156;20.788;2022-11-15T16:12:08;100179.74;;;5.79;100.00
38612;BME280;24368;52.156;20.788;2022-11-15T16:17:26;100175.91;;;5.79;100.00
38612;BME280;24368;52.156;20.788;2022-11-15T16:22:28;100172.16;;;5.80;100.00
38612;BME280;24368;52.156;20.788;2022-11-15T16:27:30;100172.14;;;5.78;100.00
38612;BME280;24368;52.156;20.788;2022-11-15T16:32:32;100174.73;;;5.74;100.00
38612;BME280;24368;52.156;20.788;2022-11-15T16:37:34;100179.98;;;5.74;100.00
38612;BME280;24368;52.156;20.788;2022-11-15T16:42:36;100189.18;;;5.71;100.00
38612;BME280;24368;52.156;20.788;2022-11-15T16:47:38;100182.27;;;5.67;100.00
38612;BME280;24368;52.156;20.788;2022-11-15T16:52:39;100183.45;;;5.70;100.00
38612;BME280;24368;52.156;20.788;2022-11-15T16:57:41;100183.49;;;5.76;100.00
38612;BME280;24368;52.156;20.788;2022-11-15T17:02:48;100180.80;;;5.79;100.00
38612;BME280;24368;52.156;20.788;2022-11-15T17:07:50;100183.83;;;5.78;100.00
38612;BME280;24368;52.156;20.788;2022-11-15T17:12:55;100178.76;;;5.76;100.00
38612;BME280;24368;52.156;20.788;2022-11-15T17:17:57;100177.60;;;5.69;100.00
38612;BME280;24368;52.156;20.788;2022-11-15T17:22:59;100171.49;;;5.64;100.00
38612;BME280;24368;52.156;20.788;2022-11-15T17:28:01;100169.39;;;5.60;100.00
38612;BME280;24368;52.156;20.788;2022-11-15T17:33:03;100171.44;;;5.61;100.00
38612;BME280;24368;52.156;20.788;2022-11-15T17:38:05;100175.98;;;5.60;100.00
38612;BME280;24368;52.156;20.788;2022-11-15T17:43:10;100177.42;;;5.60;100.00
38612;BME280;24368;52.156;20.788;2022-11-15T17:48:12;100168.95;;;5.59;100.00
38612;BME280;24368;52.156;20.788;2022-11-15T17:53:13;100158.85;;;5.56;100.00
38612;BME280;24368;52.156;20.788;2022-11-15T17:58:15;100152.77;;;5.54;100.00
38612;BME280;24368;52.156;20.788;2022-11-15T18:03:20;100149.47;;;5.49;100.00
38612;BME280;24368;52.156;20.788;2022-11-15T18:08:22;100152.05;;;5.54;100.00
38612;BME280;24368;52.156;20.788;2022-11-15T18:13:24;100153.08;;;5.56;100.00
38612;BME280;24368;52.156;20.788;2022-11-15T18:18:27;100149.57;;;5.59;100.00
38612;BME280;24368;52.156;20.788;2022-11-15T18:23:31;100146.39;;;5.51;100.00
38612;BME280;24368;52.156;20.788;2022-11-15T18:28:35;100145.49;;;5.47;100.00
38612;BME280;24368;52.156;20.788;2022-11-15T18:33:38;100144.71;;;5.46;100.00
38612;BME280;24368;52.156;20.788;2022-11-15T18:38:40;100147.58;;;5.49;100.00
38612;BME280;24368;52.156;20.788;2022-11-15T18:43:43;100141.84;;;5.51;100.00
38612;BME280;24368;52.156;20.788;2022-11-15T18:48:46;100145.25;;;5.50;100.00
38612;BME280;24368;52.156;20.788;2022-11-15T18:53:52;100148.52;;;5.51;100.00
38612;BME280;24368;52.156;20.788;2022-11-15T18:58:56;100153.59;;;5.51;100.00
38612;BME280;24368;52.156;20.788;2022-11-15T19:04:08;100146.34;;;5.43;100.00
38612;BME280;24368;52.156;20.788;2022-11-15T19:09:13;100137.91;;;5.42;100.00
38612;BME280;24368;52.156;20.788;2022-11-15T19:14:16;100138.01;;;5.40;100.00
38612;BME280;24368;52.156;20.788;2022-11-15T19:19:25;100136.69;;;5.41;100.00
38612;BME280;24368;52.156;20.788;2022-11-15T19:24:29;100136.44;;;5.38;100.00
38612;BME280;24368;52.156;20.788;2022-11-15T19:29:31;100138.51;;;5.41;100.00
38612;BME280;24368;52.156;20.788;2022-11-15T19:34:33;100139.27;;;5.36;100.00
38612;BME280;24368;52.156;20.788;2022-11-15T19:39:35;100139.70;;;5.35;100.00
38612;BME280;24368;52.156;20.788;2022-11-15T19:44:37;100129.15;;;5.36;100.00
38612;BME280;24368;52.156;20.788;2022-11-15T19:49:39;100126.52;;;5.34;100.00
38612;BME280;24368;52.156;20.788;2022-11-15T19:54:41;100121.48;;;5.33;100.00
38612;BME280;24368;52.156;20.788;2022-11-15T19:59:42;100122.90;;;5.31;100.00
38612;BME280;24368;52.156;20.788;2022-11-15T20:04:44;100125.25;;;5.28;100.00
38612;BME280;24368;52.156;20.788;2022-11-15T20:09:46;100115.65;;;5.24;100.00
38612;BME280;24368;52.156;20.788;2022-11-15T20:14:48;100115.23;;;5.24;100.00
38612;BME280;24368;52.156;20.788;2022-11-15T20:19:49;100110.01;;;5.26;100.00
38612;BME280;24368;52.156;20.788;2022-11-15T20:24:51;100112.34;;;5.24;100.00
38612;BME280;24368;52.156;20.788;2022-11-15T20:29:53;100107.77;;;5.17;100.00
38612;BME280;24368;52.156;20.788;2022-11-15T20:34:55;100117.31;;;5.09;100.00
38612;BME280;24368;52.156;20.788;2022-11-15T20:39:57;100121.95;;;5.06;100.00
38612;BME280;24368;52.156;20.788;2022-11-15T20:44:59;100117.14;;;5.05;100.00
38612;BME280;24368;52.156;20.788;2022-11-15T20:50:03;100113.64;;;5.05;100.00
38612;BME280;24368;52.156;20.788;2022-11-15T20:55:07;100111.97;;;5.04;100.00
38612;BME280;24368;52.156;20.788;2022-11-15T21:00:09;100107.00;;;4.97;100.00
38612;BME280;24368;52.156;20.788;2022-11-15T21:05:11;100105.09;;;4.90;100.00
38612;BME280;24368;52.156;20.788;2022-11-15T21:10:13;100105.15;;;4.87;100.00
38612;BME280;24368;52.156;20.788;2022-11-15T21:15:33;100105.88;;;4.95;100.00
38612;BME280;24368;52.156;20.788;2022-11-15T21:20:35;100108.04;;;4.99;100.00
38612;BME280;24368;52.156;20.788;2022-11-15T21:25:37;100105.29;;;4.96;100.00
38612;BME280;24368;52.156;20.788;2022-11-15T21:30:38;100101.64;;;4.85;100.00
38612;BME280;24368;52.156;20.788;2022-11-15T21:35:40;100097.87;;;4.80;100.00
38612;BME280;24368;52.156;20.788;2022-11-15T21:40:43;100091.00;;;4.79;100.00
38612;BME280;24368;52.156;20.788;2022-11-15T21:45:56;100086.67;;;4.80;100.00
38612;BME280;24368;52.156;20.788;2022-11-15T21:51:01;100082.15;;;4.86;100.00
38612;BME280;24368;52.156;20.788;2022-11-15T21:56:03;100075.08;;;4.87;100.00
38612;BME280;24368;52.156;20.788;2022-11-15T22:01:06;100070.94;;;4.83;100.00
38612;BME280;24368;52.156;20.788;2022-11-15T22:06:27;100070.42;;;4.78;100.00
38612;BME280;24368;52.156;20.788;2022-11-15T22:11:31;100077.11;;;4.80;100.00
38612;BME280;24368;52.156;20.788;2022-11-15T22:16:33;100066.23;;;4.85;100.00
38612;BME280;24368;52.156;20.788;2022-11-15T22:21:36;100056.64;;;4.80;100.00
38612;BME280;24368;52.156;20.788;2022-11-15T22:26:40;100046.19;;;4.74;100.00
38612;BME280;24368;52.156;20.788;2022-11-15T22:31:42;100040.94;;;4.78;100.00
38612;BME280;24368;52.156;20.788;2022-11-15T22:36:43;100026.75;;;4.83;100.00
38612;BME280;24368;52.156;20.788;2022-11-15T22:41:46;100023.92;;;4.84;100.00
38612;BME280;24368;52.156;20.788;2022-11-15T22:46:48;100025.40;;;4.85;100.00
38612;BME280;24368;52.156;20.788;2022-11-15T22:51:49;100011.39;;;4.81;100.00
38612;BME280;24368;52.156;20.788;2022-11-15T22:56:51;100008.27;;;4.74;100.00
38612;BME280;24368;52.156;20.788;2022-11-15T23:01:53;100005.35;;;4.76;100.00
38612;BME280;24368;52.156;20.788;2022-11-15T23:06:57;100001.55;;;4.82;100.00
38612;BME280;24368;52.156;20.788;2022-11-15T23:11:59;99992.10;;;4.84;100.00
38612;BME280;24368;52.156;20.788;2022-11-15T23:17:19;100002.22;;;4.82;100.00
38612;BME280;24368;52.156;20.788;2022-11-15T23:22:21;100000.80;;;4.80;100.00
38612;BME280;24368;52.156;20.788;2022-11-15T23:27:42;99997.16;;;4.80;100.00
38612;BME280;24368;52.156;20.788;2022-11-15T23:32:44;99994.34;;;4.86;100.00
38612;BME280;24368;52.156;20.788;2022-11-15T23:38:04;99996.71;;;4.94;100.00
38612;BME280;24368;52.156;20.788;2022-11-15T23:43:06;99997.63;;;4.96;100.00
38612;BME280;24368;52.156;20.788;2022-11-15T23:48:08;99994.47;;;4.91;100.00
38612;BME280;24368;52.156;20.788;2022-11-15T23:53:09;99990.59;;;4.92;100.00
38612;BME280;24368;52.156;20.788;2022-11-15T23:58:11;99984.04;;;4.95;100.00
